createdAt,value
2017-05-02T00:00:06.082Z,0
2017-05-02T00:01:07.514Z,0
2017-05-02T00:02:08.936Z,0
2017-05-02T00:03:10.362Z,0
2017-05-02T00:04:11.778Z,0
2017-05-02T00:05:13.209Z,0
2017-05-02T00:06:14.633Z,0
2017-05-02T00:07:16.061Z,0
2017-05-02T00:08:17.489Z,0
2017-05-02T00:09:18.923Z,0
2017-05-02T00:10:20.345Z,0
2017-05-02T00:11:21.761Z,0
2017-05-02T00:12:23.186Z,0
2017-05-02T00:13:24.617Z,0
2017-05-02T00:14:26.033Z,0
2017-05-02T00:15:27.453Z,0
2017-05-02T00:16:28.872Z,0
2017-05-02T00:17:30.297Z,0
2017-05-02T00:18:31.720Z,0
2017-05-02T00:19:33.137Z,0
2017-05-02T00:20:34.559Z,0
2017-05-02T00:21:35.978Z,0
2017-05-02T00:22:37.403Z,0
2017-05-02T00:23:38.831Z,0
2017-05-02T00:24:40.259Z,0
2017-05-02T00:25:41.681Z,0
2017-05-02T00:26:43.104Z,0
2017-05-02T00:27:44.523Z,0
2017-05-02T00:28:45.948Z,0
2017-05-02T00:29:47.369Z,0
2017-05-02T00:30:48.798Z,0
2017-05-02T00:31:50.235Z,0
2017-05-02T00:32:51.649Z,0
2017-05-02T00:33:53.077Z,0
2017-05-02T00:34:54.501Z,0
2017-05-02T00:35:55.927Z,0
2017-05-02T00:36:57.356Z,0
2017-05-02T00:37:58.779Z,0
2017-05-02T00:39:00.200Z,0
2017-05-02T00:40:01.621Z,0
2017-05-02T00:41:03.038Z,0
2017-05-02T00:42:04.464Z,0
2017-05-02T00:43:05.890Z,0
2017-05-02T00:44:07.349Z,0
2017-05-02T00:45:08.734Z,0
2017-05-02T00:46:10.154Z,0
2017-05-02T00:47:11.591Z,0
2017-05-02T00:48:13.017Z,0
2017-05-02T00:49:14.442Z,0
2017-05-02T00:50:15.868Z,0
2017-05-02T00:51:17.305Z,0
2017-05-02T00:52:18.725Z,0
2017-05-02T00:53:20.149Z,0
2017-05-02T00:54:21.652Z,0
2017-05-02T00:55:23.138Z,0
2017-05-02T00:56:24.558Z,0
2017-05-02T00:57:25.982Z,0
2017-05-02T00:58:27.451Z,0
2017-05-02T00:59:28.952Z,0
2017-05-02T01:00:30.380Z,0
2017-05-02T01:01:31.834Z,0
2017-05-02T01:02:33.257Z,0
2017-05-02T01:03:34.681Z,0
2017-05-02T01:04:36.113Z,0
2017-05-02T01:05:37.545Z,0
2017-05-02T01:06:38.967Z,0
2017-05-02T01:07:40.390Z,0
2017-05-02T01:08:41.813Z,0
2017-05-02T01:09:43.269Z,0
2017-05-02T01:10:44.701Z,0
2017-05-02T01:11:46.124Z,0
2017-05-02T01:12:47.564Z,0
2017-05-02T01:13:48.991Z,0
2017-05-02T01:14:50.420Z,0
2017-05-02T01:15:51.841Z,0
2017-05-02T01:16:53.268Z,0
2017-05-02T01:17:54.692Z,0
2017-05-02T01:18:56.113Z,0
2017-05-02T01:19:57.534Z,0
2017-05-02T01:20:58.959Z,0
2017-05-02T01:22:00.378Z,0
2017-05-02T01:23:01.811Z,0
2017-05-02T01:24:03.237Z,0
2017-05-02T01:25:04.650Z,0
2017-05-02T01:26:06.079Z,0
2017-05-02T01:27:07.497Z,0
2017-05-02T01:28:08.924Z,0
2017-05-02T01:29:10.351Z,0
2017-05-02T01:30:11.786Z,0
2017-05-02T01:31:13.211Z,0
2017-05-02T01:32:14.633Z,0
2017-05-02T01:33:16.059Z,0
2017-05-02T01:34:17.476Z,0
2017-05-02T01:35:18.900Z,0
2017-05-02T01:36:20.322Z,0
2017-05-02T01:37:21.747Z,0
2017-05-02T01:38:23.166Z,0
2017-05-02T01:39:24.608Z,0
2017-05-02T01:40:26.033Z,0
2017-05-02T01:41:27.459Z,0
2017-05-02T01:42:28.877Z,0
2017-05-02T01:43:30.305Z,0
2017-05-02T01:44:31.726Z,0
2017-05-02T01:45:33.158Z,0
2017-05-02T01:46:34.582Z,0
2017-05-02T01:47:36.003Z,0
2017-05-02T01:48:37.430Z,0
2017-05-02T01:49:38.851Z,0
2017-05-02T01:50:40.287Z,0
2017-05-02T01:51:41.712Z,0
2017-05-02T01:52:43.128Z,0
2017-05-02T01:53:44.570Z,0
2017-05-02T01:54:45.979Z,0
2017-05-02T01:55:47.454Z,0
2017-05-02T01:56:48.844Z,0
2017-05-02T01:57:50.262Z,0
2017-05-02T01:58:51.692Z,0
2017-05-02T01:59:53.128Z,0
2017-05-02T02:00:54.548Z,0
2017-05-02T02:01:55.974Z,0
2017-05-02T02:02:57.393Z,0
2017-05-02T02:03:58.814Z,0
2017-05-02T02:05:00.251Z,0
2017-05-02T02:06:01.745Z,0
2017-05-02T02:07:03.289Z,0
2017-05-02T02:08:04.711Z,0
2017-05-02T02:09:06.135Z,0
2017-05-02T02:10:07.562Z,0
2017-05-02T02:11:09.066Z,0
2017-05-02T02:12:10.485Z,0
2017-05-02T02:13:11.907Z,0
2017-05-02T02:14:13.370Z,0
2017-05-02T02:15:14.792Z,0
2017-05-02T02:16:16.209Z,0
2017-05-02T02:17:17.714Z,0
2017-05-02T02:18:19.155Z,0
2017-05-02T02:19:20.570Z,0
2017-05-02T02:20:21.999Z,0
2017-05-02T02:21:23.423Z,0
2017-05-02T02:22:24.845Z,0
2017-05-02T02:23:26.265Z,0
2017-05-02T02:24:27.699Z,0
2017-05-02T02:25:29.121Z,0
2017-05-02T02:26:30.546Z,0
2017-05-02T02:27:31.970Z,0
2017-05-02T02:28:33.390Z,0
2017-05-02T02:29:34.812Z,0
2017-05-02T02:30:36.248Z,0
2017-05-02T02:31:37.670Z,0
2017-05-02T02:32:39.094Z,0
2017-05-02T02:33:40.518Z,0
2017-05-02T02:34:41.957Z,0
2017-05-02T02:35:43.375Z,0
2017-05-02T02:36:44.800Z,0
2017-05-02T02:37:46.225Z,0
2017-05-02T02:38:47.650Z,0
2017-05-02T02:39:49.078Z,0
2017-05-02T02:40:50.598Z,0
2017-05-02T02:41:51.985Z,0
2017-05-02T02:42:53.407Z,0
2017-05-02T02:43:54.845Z,0
2017-05-02T02:44:56.271Z,0
2017-05-02T02:45:57.689Z,0
2017-05-02T02:46:59.118Z,0
2017-05-02T02:48:00.537Z,0
2017-05-02T02:49:01.962Z,0
2017-05-02T02:50:03.386Z,0
2017-05-02T02:51:04.818Z,0
2017-05-02T02:52:06.253Z,0
2017-05-02T02:53:07.673Z,0
2017-05-02T02:54:09.098Z,0
2017-05-02T02:55:10.518Z,0
2017-05-02T02:56:11.948Z,0
2017-05-02T02:57:13.379Z,0
2017-05-02T02:58:14.801Z,0
2017-05-02T02:59:16.221Z,0
2017-05-02T03:00:17.639Z,0
2017-05-02T03:01:19.067Z,0
2017-05-02T03:02:20.490Z,0
2017-05-02T03:03:21.911Z,0
2017-05-02T03:04:23.333Z,0
2017-05-02T03:05:24.766Z,0
2017-05-02T03:06:26.181Z,0
2017-05-02T03:07:27.600Z,0
2017-05-02T03:08:29.032Z,0
2017-05-02T03:09:30.459Z,0
2017-05-02T03:10:31.887Z,0
2017-05-02T03:11:33.314Z,0
2017-05-02T03:12:34.740Z,0
2017-05-02T03:13:36.159Z,0
2017-05-02T03:14:37.586Z,0
2017-05-02T03:15:39.015Z,0
2017-05-02T03:16:40.442Z,0
2017-05-02T03:17:41.865Z,0
2017-05-02T03:18:43.301Z,0
2017-05-02T03:19:44.731Z,0
2017-05-02T03:20:46.151Z,0
2017-05-02T03:21:47.572Z,0
2017-05-02T03:22:48.996Z,0
2017-05-02T03:23:50.429Z,0
2017-05-02T03:24:51.851Z,0
2017-05-02T03:25:53.277Z,0
2017-05-02T03:26:54.700Z,0
2017-05-02T03:27:56.122Z,0
2017-05-02T03:28:57.547Z,0
2017-05-02T03:29:58.978Z,0
2017-05-02T03:31:00.396Z,0
2017-05-02T03:32:01.818Z,0
2017-05-02T03:33:03.236Z,0
2017-05-02T03:34:04.661Z,0
2017-05-02T03:35:06.084Z,0
2017-05-02T03:36:07.513Z,0
2017-05-02T03:37:08.935Z,0
2017-05-02T03:38:10.360Z,0
2017-05-02T03:39:11.781Z,0
2017-05-02T03:40:13.196Z,0
2017-05-02T03:41:14.619Z,0
2017-05-02T03:42:16.052Z,0
2017-05-02T03:43:17.480Z,0
2017-05-02T03:44:18.902Z,0
2017-05-02T03:45:20.334Z,0
2017-05-02T03:46:21.757Z,0
2017-05-02T03:47:23.180Z,0
2017-05-02T03:48:24.602Z,0
2017-05-02T03:49:26.031Z,0
2017-05-02T03:50:27.465Z,0
2017-05-02T03:51:28.885Z,0
2017-05-02T03:52:30.319Z,0
2017-05-02T03:53:31.740Z,0
2017-05-02T03:54:33.166Z,0
2017-05-02T03:55:34.594Z,0
2017-05-02T03:56:36.015Z,0
2017-05-02T03:57:37.440Z,0
2017-05-02T03:58:38.856Z,0
2017-05-02T03:59:40.287Z,0
2017-05-02T04:00:41.723Z,0
2017-05-02T04:01:43.141Z,0
2017-05-02T04:02:44.561Z,0
2017-05-02T04:03:45.984Z,0
2017-05-02T04:04:47.419Z,0
2017-05-02T04:05:48.855Z,0
2017-05-02T04:06:50.276Z,0
2017-05-02T04:07:51.701Z,0
2017-05-02T04:08:53.137Z,0
2017-05-02T04:09:54.633Z,0
2017-05-02T04:10:56.052Z,0
2017-05-02T04:11:57.487Z,0
2017-05-02T04:12:58.909Z,0
2017-05-02T04:14:00.329Z,0
2017-05-02T04:15:01.755Z,0
2017-05-02T04:16:03.284Z,0
2017-05-02T04:17:04.701Z,0
2017-05-02T04:18:06.131Z,0
2017-05-02T04:19:07.640Z,0
2017-05-02T04:20:09.083Z,0
2017-05-02T04:21:10.503Z,0
2017-05-02T04:22:11.927Z,0
2017-05-02T04:23:13.352Z,0
2017-05-02T04:24:14.777Z,0
2017-05-02T04:25:16.203Z,0
2017-05-02T04:26:17.626Z,0
2017-05-02T04:27:19.103Z,0
2017-05-02T04:28:20.529Z,0
2017-05-02T04:29:21.958Z,0
2017-05-02T04:30:23.388Z,0
2017-05-02T04:31:24.821Z,0
2017-05-02T04:32:26.249Z,0
2017-05-02T04:33:27.667Z,0
2017-05-02T04:34:29.121Z,0
2017-05-02T04:35:30.556Z,0
2017-05-02T04:36:31.978Z,0
2017-05-02T04:37:33.397Z,0
2017-05-02T04:38:34.822Z,0
2017-05-02T04:39:36.245Z,0
2017-05-02T04:40:37.667Z,0
2017-05-02T04:41:39.094Z,0
2017-05-02T04:42:40.517Z,0
2017-05-02T04:43:41.938Z,0
2017-05-02T04:44:43.363Z,0
2017-05-02T04:45:44.789Z,0
2017-05-02T04:46:46.213Z,0
2017-05-02T04:47:47.639Z,0
2017-05-02T04:48:49.081Z,0
2017-05-02T04:49:50.511Z,0
2017-05-02T04:50:51.939Z,0
2017-05-02T04:51:53.372Z,0
2017-05-02T04:52:54.797Z,0
2017-05-02T04:53:56.233Z,0
2017-05-02T04:54:57.652Z,0
2017-05-02T04:55:59.085Z,0
2017-05-02T04:57:00.517Z,0
2017-05-02T04:58:01.941Z,0
2017-05-02T04:59:03.372Z,0
2017-05-02T05:00:04.794Z,0
2017-05-02T05:01:06.211Z,0
2017-05-02T05:02:07.641Z,0
2017-05-02T05:03:09.062Z,0
2017-05-02T05:04:10.490Z,0
2017-05-02T05:05:11.913Z,0
2017-05-02T05:06:13.334Z,0
2017-05-02T05:07:14.761Z,0
2017-05-02T05:08:16.179Z,0
2017-05-02T05:09:17.605Z,5
2017-05-02T05:10:19.037Z,5
2017-05-02T05:11:20.461Z,5
2017-05-02T05:12:21.888Z,5
2017-05-02T05:13:23.313Z,5
2017-05-02T05:14:24.748Z,5
2017-05-02T05:15:26.175Z,5
2017-05-02T05:16:27.601Z,5
2017-05-02T05:17:29.030Z,5
2017-05-02T05:18:30.451Z,5
2017-05-02T05:19:31.877Z,5
2017-05-02T05:20:33.317Z,5
2017-05-02T05:21:34.737Z,5
2017-05-02T05:22:36.172Z,5
2017-05-02T05:23:37.609Z,5
2017-05-02T05:24:39.086Z,10
2017-05-02T05:25:40.518Z,10
2017-05-02T05:26:41.944Z,10
2017-05-02T05:27:43.373Z,10
2017-05-02T05:28:44.801Z,10
2017-05-02T05:29:46.226Z,10
2017-05-02T05:30:47.653Z,10
2017-05-02T05:31:49.163Z,10
2017-05-02T05:32:50.588Z,15
2017-05-02T05:33:52.022Z,10
2017-05-02T05:34:53.453Z,10
2017-05-02T05:35:54.943Z,10
2017-05-02T05:36:56.377Z,10
2017-05-02T05:37:57.802Z,10
2017-05-02T05:38:59.235Z,15
2017-05-02T05:40:00.661Z,10
2017-05-02T05:41:02.088Z,10
2017-05-02T05:42:03.520Z,10
2017-05-02T05:43:04.950Z,10
2017-05-02T05:44:06.382Z,10
2017-05-02T05:45:07.817Z,10
2017-05-02T05:46:09.245Z,10
2017-05-02T05:47:10.674Z,10
2017-05-02T05:48:12.101Z,10
2017-05-02T05:49:13.524Z,10
2017-05-02T05:50:14.955Z,10
2017-05-02T05:51:16.379Z,10
2017-05-02T05:52:17.805Z,10
2017-05-02T05:53:19.233Z,10
2017-05-02T05:54:20.658Z,10
2017-05-02T05:55:22.090Z,10
2017-05-02T05:56:23.522Z,10
2017-05-02T05:57:24.955Z,10
2017-05-02T05:58:26.383Z,10
2017-05-02T05:59:27.804Z,10
2017-05-02T06:00:29.233Z,15
2017-05-02T06:01:30.666Z,15
2017-05-02T06:02:32.097Z,15
2017-05-02T06:03:33.518Z,15
2017-05-02T06:04:34.959Z,15
2017-05-02T06:05:36.392Z,15
2017-05-02T06:06:38.424Z,15
2017-05-02T06:07:39.860Z,15
2017-05-02T06:08:41.285Z,15
2017-05-02T06:09:42.715Z,15
2017-05-02T06:10:44.142Z,15
2017-05-02T06:11:45.562Z,15
2017-05-02T06:12:46.997Z,15
2017-05-02T06:13:48.421Z,15
2017-05-02T06:14:49.841Z,15
2017-05-02T06:15:51.285Z,15
2017-05-02T06:16:52.714Z,15
2017-05-02T06:17:54.143Z,15
2017-05-02T06:18:55.617Z,15
2017-05-02T06:19:57.086Z,15
2017-05-02T06:20:58.512Z,15
2017-05-02T06:21:59.938Z,20
2017-05-02T06:23:01.404Z,20
2017-05-02T06:24:02.836Z,20
2017-05-02T06:25:04.259Z,5
2017-05-02T06:26:05.717Z,15
2017-05-02T06:27:07.147Z,15
2017-05-02T06:28:08.575Z,15
2017-05-02T06:29:10.007Z,20
2017-05-02T06:30:11.448Z,20
2017-05-02T06:31:12.905Z,20
2017-05-02T06:32:14.333Z,20
2017-05-02T06:33:15.764Z,20
2017-05-02T06:34:17.192Z,20
2017-05-02T06:35:18.621Z,25
2017-05-02T06:36:20.052Z,25
2017-05-02T06:37:21.480Z,20
2017-05-02T06:38:23.015Z,20
2017-05-02T06:39:24.447Z,20
2017-05-02T06:40:25.867Z,20
2017-05-02T06:41:27.302Z,20
2017-05-02T06:42:28.728Z,20
2017-05-02T06:43:30.145Z,20
2017-05-02T06:44:31.626Z,25
2017-05-02T06:45:33.050Z,25
2017-05-02T06:46:34.486Z,20
2017-05-02T06:47:35.919Z,20
2017-05-02T06:48:37.341Z,20
2017-05-02T06:49:38.773Z,25
2017-05-02T06:50:40.195Z,20
2017-05-02T06:51:41.632Z,20
2017-05-02T06:52:43.053Z,25
2017-05-02T06:53:44.485Z,25
2017-05-02T06:54:45.912Z,25
2017-05-02T06:55:47.337Z,20
2017-05-02T06:56:48.762Z,25
2017-05-02T06:57:50.187Z,25
2017-05-02T06:58:51.620Z,25
2017-05-02T06:59:53.045Z,25
2017-05-02T07:00:54.476Z,20
2017-05-02T07:01:55.917Z,25
2017-05-02T07:02:57.343Z,25
2017-05-02T07:03:58.761Z,30
2017-05-02T07:05:00.194Z,25
2017-05-02T07:06:01.624Z,25
2017-05-02T07:07:03.063Z,30
2017-05-02T07:08:04.490Z,20
2017-05-02T07:09:05.910Z,35
2017-05-02T07:10:07.333Z,35
2017-05-02T07:11:08.755Z,30
2017-05-02T07:12:10.181Z,25
2017-05-02T07:13:11.612Z,30
2017-05-02T07:14:13.046Z,30
2017-05-02T07:15:14.472Z,25
2017-05-02T07:16:15.890Z,35
2017-05-02T07:17:17.317Z,40
2017-05-02T07:18:18.743Z,45
2017-05-02T07:19:20.170Z,45
2017-05-02T07:20:21.603Z,50
2017-05-02T07:21:23.039Z,55
2017-05-02T07:22:24.465Z,50
2017-05-02T07:23:25.906Z,50
2017-05-02T07:24:27.332Z,50
2017-05-02T07:25:28.762Z,65
2017-05-02T07:26:30.192Z,75
2017-05-02T07:27:31.622Z,85
2017-05-02T07:28:33.049Z,80
2017-05-02T07:29:34.477Z,80
2017-05-02T07:30:35.900Z,75
2017-05-02T07:31:37.332Z,75
2017-05-02T07:32:38.768Z,75
2017-05-02T07:33:40.196Z,75
2017-05-02T07:34:41.630Z,70
2017-05-02T07:35:43.055Z,30
2017-05-02T07:36:44.482Z,65
2017-05-02T07:37:45.911Z,65
2017-05-02T07:38:47.337Z,60
2017-05-02T07:39:48.763Z,55
2017-05-02T07:40:50.196Z,60
2017-05-02T07:41:51.617Z,55
2017-05-02T07:42:53.049Z,50
2017-05-02T07:43:55.449Z,50
2017-05-02T07:44:56.875Z,50
2017-05-02T07:45:58.307Z,50
2017-05-02T07:46:59.735Z,55
2017-05-02T07:48:01.165Z,60
2017-05-02T07:49:02.595Z,55
2017-05-02T07:50:04.031Z,65
2017-05-02T07:51:05.454Z,65
2017-05-02T07:52:06.894Z,65
2017-05-02T07:53:08.322Z,65
2017-05-02T07:54:09.754Z,65
2017-05-02T07:55:11.179Z,70
2017-05-02T07:56:12.604Z,75
2017-05-02T07:57:14.033Z,80
2017-05-02T07:58:15.467Z,85
2017-05-02T07:59:16.893Z,80
2017-05-02T08:00:18.314Z,80
2017-05-02T08:01:19.748Z,70
2017-05-02T08:02:21.179Z,65
2017-05-02T08:03:22.619Z,55
2017-05-02T08:04:24.050Z,55
2017-05-02T08:05:26.457Z,60
2017-05-02T08:06:27.883Z,60
2017-05-02T08:07:29.319Z,60
2017-05-02T08:08:30.749Z,60
2017-05-02T08:09:32.171Z,60
2017-05-02T08:10:33.600Z,65
2017-05-02T08:11:35.033Z,60
2017-05-02T08:12:36.470Z,50
2017-05-02T08:13:37.904Z,55
2017-05-02T08:14:39.344Z,55
2017-05-02T08:15:40.772Z,60
2017-05-02T08:16:42.201Z,50
2017-05-02T08:17:43.637Z,55
2017-05-02T08:18:45.076Z,65
2017-05-02T08:19:46.514Z,65
2017-05-02T08:20:47.946Z,70
2017-05-02T08:21:49.371Z,65
2017-05-02T08:22:50.799Z,70
2017-05-02T08:23:52.232Z,85
2017-05-02T08:24:53.663Z,85
2017-05-02T08:25:55.090Z,85
2017-05-02T08:26:56.506Z,80
2017-05-02T08:27:57.934Z,70
2017-05-02T08:28:59.366Z,65
2017-05-02T08:30:00.798Z,60
2017-05-02T08:31:02.226Z,65
2017-05-02T08:32:03.654Z,75
2017-05-02T08:33:05.082Z,75
2017-05-02T08:34:06.511Z,75
2017-05-02T08:35:07.951Z,80
2017-05-02T08:36:09.382Z,75
2017-05-02T08:37:10.817Z,60
2017-05-02T08:38:12.249Z,55
2017-05-02T08:39:13.674Z,55
2017-05-02T08:40:15.102Z,50
2017-05-02T08:41:16.534Z,50
2017-05-02T08:42:17.954Z,55
2017-05-02T08:43:19.385Z,55
2017-05-02T08:44:20.825Z,60
2017-05-02T08:45:22.252Z,65
2017-05-02T08:46:23.686Z,70
2017-05-02T08:47:25.117Z,70
2017-05-02T08:48:27.371Z,65
2017-05-02T08:49:27.936Z,65
2017-05-02T08:50:29.367Z,70
2017-05-02T08:51:30.809Z,75
2017-05-02T08:52:32.231Z,75
2017-05-02T08:53:33.662Z,85
2017-05-02T08:54:35.091Z,85
2017-05-02T08:55:36.525Z,90
2017-05-02T08:56:37.954Z,90
2017-05-02T08:57:39.380Z,90
2017-05-02T08:58:40.811Z,90
2017-05-02T08:59:42.244Z,90
2017-05-02T09:00:43.673Z,85
2017-05-02T09:01:45.103Z,80
2017-05-02T09:02:46.532Z,80
2017-05-02T09:03:47.969Z,85
2017-05-02T09:04:49.401Z,85
2017-05-02T09:05:50.836Z,95
2017-05-02T09:06:52.287Z,100
2017-05-02T09:07:53.718Z,95
2017-05-02T09:08:55.263Z,95
2017-05-02T09:09:56.691Z,90
2017-05-02T09:10:58.122Z,90
2017-05-02T09:11:59.558Z,95
2017-05-02T09:13:00.987Z,95
2017-05-02T09:14:02.410Z,105
2017-05-02T09:15:03.842Z,105
2017-05-02T09:16:05.271Z,90
2017-05-02T09:17:06.706Z,70
2017-05-02T09:18:08.141Z,70
2017-05-02T09:19:09.576Z,80
2017-05-02T09:20:11.004Z,80
2017-05-02T09:21:12.434Z,90
2017-05-02T09:22:13.874Z,105
2017-05-02T09:23:15.301Z,115
2017-05-02T09:24:16.734Z,115
2017-05-02T09:25:18.162Z,110
2017-05-02T09:26:19.592Z,105
2017-05-02T09:27:21.030Z,105
2017-05-02T09:28:22.465Z,115
2017-05-02T09:29:23.898Z,120
2017-05-02T09:30:25.325Z,130
2017-05-02T09:31:26.761Z,150
2017-05-02T09:32:28.189Z,150
2017-05-02T09:33:29.627Z,150
2017-05-02T09:34:31.064Z,150
2017-05-02T09:35:32.491Z,145
2017-05-02T09:36:33.921Z,145
2017-05-02T09:37:35.353Z,135
2017-05-02T09:38:36.805Z,115
2017-05-02T09:39:38.233Z,105
2017-05-02T09:40:39.661Z,100
2017-05-02T09:41:41.093Z,110
2017-05-02T09:42:42.528Z,125
2017-05-02T09:43:43.953Z,135
2017-05-02T09:44:45.381Z,140
2017-05-02T09:45:46.811Z,130
2017-05-02T09:46:48.234Z,115
2017-05-02T09:47:49.667Z,105
2017-05-02T09:48:51.104Z,105
2017-05-02T09:49:52.532Z,95
2017-05-02T09:50:53.960Z,90
2017-05-02T09:51:55.382Z,90
2017-05-02T09:52:56.815Z,95
2017-05-02T09:53:58.240Z,110
2017-05-02T09:54:59.667Z,115
2017-05-02T09:56:01.102Z,130
2017-05-02T09:57:02.529Z,160
2017-05-02T09:58:03.949Z,175
2017-05-02T09:59:05.383Z,170
2017-05-02T10:00:06.826Z,165
2017-05-02T10:01:08.265Z,165
2017-05-02T10:02:09.699Z,170
2017-05-02T10:03:11.125Z,175
2017-05-02T10:04:12.561Z,165
2017-05-02T10:05:14.008Z,160
2017-05-02T10:06:15.440Z,155
2017-05-02T10:07:16.869Z,160
2017-05-02T10:08:18.299Z,150
2017-05-02T10:09:19.731Z,145
2017-05-02T10:10:21.158Z,135
2017-05-02T10:11:22.583Z,140
2017-05-02T10:12:24.020Z,145
2017-05-02T10:13:25.448Z,145
2017-05-02T10:14:26.881Z,140
2017-05-02T10:15:28.320Z,130
2017-05-02T10:16:29.750Z,125
2017-05-02T10:17:31.178Z,140
2017-05-02T10:18:32.606Z,150
2017-05-02T10:19:34.035Z,155
2017-05-02T10:20:35.465Z,130
2017-05-02T10:21:36.897Z,125
2017-05-02T10:22:38.317Z,150
2017-05-02T10:23:39.791Z,150
2017-05-02T10:24:41.245Z,150
2017-05-02T10:25:42.673Z,145
2017-05-02T10:26:44.119Z,140
2017-05-02T10:27:45.551Z,135
2017-05-02T10:28:46.987Z,130
2017-05-02T10:29:48.411Z,125
2017-05-02T10:30:49.841Z,120
2017-05-02T10:31:51.273Z,125
2017-05-02T10:32:52.700Z,115
2017-05-02T10:33:54.150Z,105
2017-05-02T10:34:55.637Z,100
2017-05-02T10:35:57.101Z,100
2017-05-02T10:36:58.543Z,105
2017-05-02T10:37:59.973Z,95
2017-05-02T10:39:01.431Z,95
2017-05-02T10:40:02.875Z,100
2017-05-02T10:41:04.317Z,110
2017-05-02T10:42:05.748Z,115
2017-05-02T10:43:07.180Z,115
2017-05-02T10:44:08.620Z,120
2017-05-02T10:45:10.055Z,120
2017-05-02T10:46:11.494Z,125
2017-05-02T10:47:12.930Z,120
2017-05-02T10:48:14.357Z,125
2017-05-02T10:49:15.804Z,130
2017-05-02T10:50:17.230Z,145
2017-05-02T10:51:18.662Z,140
2017-05-02T10:52:20.093Z,140
2017-05-02T10:53:21.527Z,140
2017-05-02T10:54:23.046Z,140
2017-05-02T10:55:24.472Z,140
2017-05-02T10:56:25.914Z,150
2017-05-02T10:57:27.417Z,160
2017-05-02T10:58:28.846Z,165
2017-05-02T10:59:30.278Z,185
2017-05-02T11:00:31.709Z,190
2017-05-02T11:01:33.144Z,210
2017-05-02T11:02:34.572Z,215
2017-05-02T11:03:36.006Z,235
2017-05-02T11:04:37.447Z,255
2017-05-02T11:05:38.886Z,260
2017-05-02T11:06:40.320Z,295
2017-05-02T11:07:41.746Z,295
2017-05-02T11:08:43.277Z,290
2017-05-02T11:09:44.710Z,285
2017-05-02T11:10:46.151Z,260
2017-05-02T11:11:47.589Z,250
2017-05-02T11:12:49.025Z,220
2017-05-02T11:13:50.452Z,200
2017-05-02T11:14:51.882Z,195
2017-05-02T11:15:53.319Z,190
2017-05-02T11:16:54.762Z,190
2017-05-02T11:17:56.200Z,175
2017-05-02T11:18:57.747Z,160
2017-05-02T11:19:59.177Z,145
2017-05-02T11:21:00.609Z,125
2017-05-02T11:22:02.035Z,120
2017-05-02T11:23:03.498Z,115
2017-05-02T11:24:04.931Z,120
2017-05-02T11:25:06.363Z,120
2017-05-02T11:26:07.795Z,115
2017-05-02T11:27:09.231Z,105
2017-05-02T11:28:10.664Z,105
2017-05-02T11:29:12.097Z,95
2017-05-02T11:30:13.525Z,80
2017-05-02T11:31:14.956Z,75
2017-05-02T11:32:16.387Z,65
2017-05-02T11:33:17.826Z,55
2017-05-02T11:34:19.251Z,55
2017-05-02T11:35:20.689Z,55
2017-05-02T11:36:22.122Z,55
2017-05-02T11:37:23.554Z,50
2017-05-02T11:38:25.001Z,55
2017-05-02T11:39:26.427Z,60
2017-05-02T11:40:27.859Z,65
2017-05-02T11:41:29.291Z,60
2017-05-02T11:42:30.725Z,65
2017-05-02T11:43:32.162Z,65
2017-05-02T11:44:33.585Z,65
2017-05-02T11:45:35.019Z,70
2017-05-02T11:46:36.449Z,65
2017-05-02T11:47:37.876Z,65
2017-05-02T11:48:39.305Z,60
2017-05-02T11:49:40.733Z,60
2017-05-02T11:50:42.166Z,60
2017-05-02T11:51:43.604Z,60
2017-05-02T11:52:45.031Z,55
2017-05-02T11:53:46.463Z,60
2017-05-02T11:54:47.900Z,65
2017-05-02T11:55:49.326Z,70
2017-05-02T11:56:50.769Z,70
2017-05-02T11:57:52.194Z,70
2017-05-02T11:58:53.624Z,65
2017-05-02T11:59:55.074Z,60
2017-05-02T12:00:56.498Z,55
2017-05-02T12:01:57.925Z,50
2017-05-02T12:02:59.351Z,45
2017-05-02T12:04:00.785Z,40
2017-05-02T12:05:02.224Z,40
2017-05-02T12:06:03.653Z,35
2017-05-02T12:07:05.080Z,35
2017-05-02T12:08:06.505Z,35
2017-05-02T12:09:07.928Z,35
2017-05-02T12:10:09.359Z,35
2017-05-02T12:11:10.787Z,35
2017-05-02T12:12:12.214Z,35
2017-05-02T12:13:13.641Z,35
2017-05-02T12:14:15.073Z,35
2017-05-02T12:15:16.499Z,35
2017-05-02T12:16:17.925Z,35
2017-05-02T12:17:19.355Z,35
2017-05-02T12:18:20.788Z,40
2017-05-02T12:19:22.214Z,45
2017-05-02T12:20:23.644Z,45
2017-05-02T12:21:25.083Z,55
2017-05-02T12:22:26.516Z,55
2017-05-02T12:23:27.948Z,55
2017-05-02T12:24:29.387Z,55
2017-05-02T12:25:30.822Z,55
2017-05-02T12:26:32.251Z,55
2017-05-02T12:27:33.687Z,55
2017-05-02T12:28:35.116Z,55
2017-05-02T12:29:36.551Z,50
2017-05-02T12:30:37.991Z,45
2017-05-02T12:31:39.430Z,45
2017-05-02T12:32:40.856Z,40
2017-05-02T12:33:42.283Z,40
2017-05-02T12:34:43.719Z,35
2017-05-02T12:35:45.148Z,35
2017-05-02T12:36:46.577Z,30
2017-05-02T12:37:48.008Z,35
2017-05-02T12:38:49.437Z,35
2017-05-02T12:39:50.865Z,35
2017-05-02T12:40:52.297Z,35
2017-05-02T12:41:54.559Z,35
2017-05-02T12:42:56.644Z,30
2017-05-02T12:43:58.078Z,30
2017-05-02T12:44:59.507Z,25
2017-05-02T12:46:00.939Z,20
2017-05-02T12:47:02.371Z,20
2017-05-02T12:48:03.809Z,25
2017-05-02T12:49:05.237Z,30
2017-05-02T12:50:06.662Z,35
2017-05-02T12:51:08.091Z,35
2017-05-02T12:52:09.543Z,35
2017-05-02T12:53:10.981Z,35
2017-05-02T12:54:12.405Z,40
2017-05-02T12:56:15.214Z,40
2017-05-02T12:57:16.652Z,35
2017-05-02T12:58:18.091Z,35
2017-05-02T12:59:19.518Z,30
2017-05-02T13:00:20.948Z,25
2017-05-02T13:01:22.371Z,20
2017-05-02T13:02:23.804Z,20
2017-05-02T13:03:25.227Z,25
2017-05-02T13:04:26.659Z,25
2017-05-02T13:05:28.801Z,30
2017-05-02T13:06:30.239Z,35
2017-05-02T13:07:31.666Z,35
2017-05-02T13:08:33.096Z,30
2017-05-02T13:09:34.526Z,30
2017-05-02T13:10:35.953Z,30
2017-05-02T13:11:37.381Z,30
2017-05-02T13:12:38.820Z,30
2017-05-02T13:13:40.246Z,30
2017-05-02T13:14:41.677Z,30
2017-05-02T13:15:43.102Z,30
2017-05-02T13:16:44.534Z,30
2017-05-02T13:17:45.961Z,25
2017-05-02T13:18:47.392Z,25
2017-05-02T13:19:48.816Z,20
2017-05-02T13:20:50.243Z,15
2017-05-02T13:21:51.687Z,15
2017-05-02T13:22:53.115Z,10
2017-05-02T13:23:54.547Z,10
2017-05-02T13:24:55.971Z,10
2017-05-02T13:25:57.403Z,10
2017-05-02T13:26:58.838Z,10
2017-05-02T13:28:00.275Z,5
2017-05-02T13:29:01.710Z,10
2017-05-02T13:30:03.137Z,10
2017-05-02T13:31:04.557Z,15
2017-05-02T13:32:05.987Z,15
2017-05-02T13:33:07.419Z,20
2017-05-02T13:34:09.456Z,25
2017-05-02T13:35:10.215Z,30
2017-05-02T13:36:11.646Z,35
2017-05-02T13:37:13.071Z,35
2017-05-02T13:38:15.815Z,30
2017-05-02T13:39:17.246Z,30
2017-05-02T13:40:18.675Z,35
2017-05-02T13:41:20.102Z,40
2017-05-02T13:42:21.522Z,40
2017-05-02T13:43:22.951Z,20
2017-05-02T13:44:24.392Z,40
2017-05-02T13:45:25.821Z,25
2017-05-02T13:46:27.261Z,45
2017-05-02T13:47:28.693Z,50
2017-05-02T13:48:30.126Z,50
2017-05-02T13:49:32.459Z,55
2017-05-02T13:50:32.916Z,55
2017-05-02T13:51:34.340Z,55
2017-05-02T13:52:35.774Z,60
2017-05-02T13:53:37.212Z,60
2017-05-02T13:54:39.149Z,60
2017-05-02T13:55:40.574Z,65
2017-05-02T13:56:42.004Z,60
2017-05-02T13:57:43.437Z,65
2017-05-02T13:58:44.870Z,60
2017-05-02T13:59:46.306Z,60
2017-05-02T14:00:47.753Z,65
2017-05-02T14:01:49.188Z,70
2017-05-02T14:02:50.612Z,65
2017-05-02T14:03:52.039Z,50
2017-05-02T14:04:53.476Z,45
2017-05-02T14:05:54.904Z,45
2017-05-02T14:06:56.341Z,50
2017-05-02T14:07:57.767Z,50
2017-05-02T14:08:59.199Z,50
2017-05-02T14:10:00.621Z,50
2017-05-02T14:11:02.059Z,50
2017-05-02T14:12:03.494Z,50
2017-05-02T14:13:04.928Z,45
2017-05-02T14:14:06.358Z,20
2017-05-02T14:15:07.780Z,15
2017-05-02T14:16:09.208Z,30
2017-05-02T14:17:10.632Z,10
2017-05-02T14:18:12.057Z,15
2017-05-02T14:19:13.491Z,20
2017-05-02T14:20:14.918Z,30
2017-05-02T14:21:16.357Z,35
2017-05-02T14:22:17.789Z,35
2017-05-02T14:23:19.218Z,45
2017-05-02T14:24:21.244Z,50
2017-05-02T14:25:22.666Z,50
2017-05-02T14:26:24.099Z,50
2017-05-02T14:27:25.527Z,65
2017-05-02T14:28:26.962Z,65
2017-05-02T14:29:28.389Z,60
2017-05-02T14:30:29.823Z,65
2017-05-02T14:31:31.253Z,70
2017-05-02T14:32:32.679Z,70
2017-05-02T14:33:34.115Z,65
2017-05-02T14:34:35.552Z,60
2017-05-02T14:35:36.999Z,55
2017-05-02T14:36:38.427Z,45
2017-05-02T14:37:39.848Z,40
2017-05-02T14:38:41.284Z,45
2017-05-02T14:39:42.712Z,40
2017-05-02T14:40:44.147Z,45
2017-05-02T14:41:45.581Z,50
2017-05-02T14:42:47.026Z,30
2017-05-02T14:43:48.448Z,50